Kingston, Jamaica

9:46 PM EST on November 28, 2014 (GMT -0500)
Norman Manley International | Change Station
CLOSE
Current Station
Airport
Location: Kingston,
Elevation: 10 ft
Nearby Weather Stations

Elev 10 ft 17.94 °N, 76.79 °W | Updated 46 minutes ago

Scattered Clouds
Scattered Clouds
81 °F
Feels Like 85 °F
N
10
Wind Variable Wind from North

Today
High -- | Low -- °F
--% Chance of Precip.
Yesterday
High -- | Low -- °F
Precip. -- in
6:20 AM 5:29 PM
Waxing Crescent, 46% visible
Pressure 29.92 in
Visibility 6.2 miles
Clouds Few 2000 ft
Few 2200 ft
Scattered Clouds 3600 ft
Heat Index 85 °F
Dew Point 73 °F
Humidity 79%
Rainfall 0.00 in
Snow Depth Not available.
UV 0 out of 12
Pollen Not available.
Air Quality Not available.
Flu Activity Not available.
METAR MKJP 290200Z 01009KT 9999 FEW020 FEW022CB SCT036 27/23 Q1013

More Conditions Fewer Conditions

Pressure 29.92 in
Visibility 6.2 miles
Clouds Few 2000 ft
Few 2200 ft
Scattered Clouds 3600 ft
Heat Index 85 °F
Dew Point 73 °F
Humidity 79%
Rainfall 0.00 in
Snow Depth Not available.
UV 0 out of 12
Pollen Not available.
Air Quality Not available.
Flu Activity Not available.
METAR MKJP 290200Z 01009KT 9999 FEW020 FEW022CB SCT036 27/23 Q1013

More Conditions Fewer Conditions

10-Day Weather Forecast

Almanac

Astronomy

Nov. 28, 2014 Rise Set
Actual Time
Civil Twilight
Nautical Twilight
Astronomical Twilight
Moon
Length of Visible Light
Length of Day
Tomorrow will be .
, % of the Moon is Illuminated

Today's Extremes

Country Highs Country Lows

Community

WunderPhotos

Upload Photos

1,774,377 photos uploaded!

WunderBlogs® & News

Nearby

Air Quality

  Air Quality AQ Index Pollutant
Not available.

Snow Depth

Station Depth Elevation

Earthquake Activity

City Distance Mag. Time & Date
Minimum magnitude displayed is 2.5.

Coastal Water Temperatures

Place Temperature

Nearby Weather Stations